createdAt,value
2022-09-13T00:01:26.431Z,-85
2022-09-13T00:04:03.156Z,-86
2022-09-13T00:06:32.146Z,-87
2022-09-13T00:09:11.416Z,-86
2022-09-13T00:11:53.599Z,-86
2022-09-13T00:14:26.707Z,-86
2022-09-13T00:16:55.490Z,-84
2022-09-13T00:19:24.200Z,-85
2022-09-13T00:21:52.979Z,-84
2022-09-13T00:24:21.471Z,-85
2022-09-13T00:26:50.286Z,-85
2022-09-13T00:29:19.777Z,-85
2022-09-13T00:31:50.225Z,-86
2022-09-13T00:34:18.830Z,-86
2022-09-13T00:36:47.548Z,-86
2022-09-13T00:39:16.066Z,-85
2022-09-13T00:41:44.792Z,-86
2022-09-13T00:45:04.691Z,-86
2022-09-13T00:47:43.054Z,-86
2022-09-13T00:50:19.226Z,-85
2022-09-13T00:52:53.233Z,-86
2022-09-13T00:55:28.972Z,-86
2022-09-13T00:58:06.370Z,-85
2022-09-13T01:00:35.006Z,-86
2022-09-13T01:03:11.952Z,-85
2022-09-13T01:05:48.603Z,-86
2022-09-13T01:08:22.553Z,-85
2022-09-13T01:10:53.668Z,-85
2022-09-13T01:13:25.311Z,-85
2022-09-13T01:15:54.456Z,-86
2022-09-13T01:18:25.034Z,-85
2022-09-13T01:21:50.550Z,-84
2022-09-13T01:25:17.601Z,-84
2022-09-13T01:28:19.101Z,-85
2022-09-13T01:30:58.967Z,-84
2022-09-13T01:33:51.530Z,-85
2022-09-13T01:36:56.673Z,-85
2022-09-13T01:39:42.069Z,-84
2022-09-13T01:42:21.472Z,-85
2022-09-13T01:45:18.721Z,-84
2022-09-13T01:47:57.828Z,-85
2022-09-13T01:50:40.419Z,-84
2022-09-13T01:53:22.083Z,-85
2022-09-13T01:56:00.311Z,-84
2022-09-13T01:58:39.205Z,-84
2022-09-13T02:01:15.335Z,-84
2022-09-13T02:03:55.778Z,-84
2022-09-13T02:06:31.569Z,-85
2022-09-13T02:09:06.201Z,-85
2022-09-13T02:11:38.889Z,-86
2022-09-13T02:14:15.283Z,-86
2022-09-13T02:16:53.795Z,-86
2022-09-13T02:19:34.043Z,-86
2022-09-13T02:22:06.024Z,-86
2022-09-13T02:24:39.529Z,-85
2022-09-13T02:27:14.071Z,-86
2022-09-13T02:29:48.348Z,-85
2022-09-13T02:32:24.917Z,-86
2022-09-13T02:35:02.746Z,-86
2022-09-13T02:37:37.244Z,-85
2022-09-13T02:40:12.998Z,-86
2022-09-13T02:42:45.873Z,-86
2022-09-13T02:45:16.607Z,-86
2022-09-13T02:47:57.593Z,-84
2022-09-13T02:50:48.363Z,-85
2022-09-13T02:53:27.546Z,-85
2022-09-13T02:56:07.838Z,-86
2022-09-13T02:58:49.525Z,-85
2022-09-13T03:01:19.552Z,-85
2022-09-13T03:03:48.578Z,-84
2022-09-13T03:06:25.453Z,-85
2022-09-13T03:08:54.547Z,-85
2022-09-13T03:11:42.826Z,-85
2022-09-13T03:14:30.620Z,-85
2022-09-13T03:17:18.775Z,-84
2022-09-13T03:20:08.406Z,-85
2022-09-13T03:23:24.626Z,-85
2022-09-13T03:26:17.663Z,-85
2022-09-13T03:28:58.421Z,-86
2022-09-13T03:31:36.811Z,-83
2022-09-13T03:34:14.012Z,-84
2022-09-13T03:36:50.842Z,-84
2022-09-13T03:39:36.025Z,-84
2022-09-13T03:42:14.721Z,-85
2022-09-13T03:44:48.217Z,-84
2022-09-13T03:47:19.923Z,-83
2022-09-13T03:49:51.900Z,-83
2022-09-13T03:52:21.459Z,-84
2022-09-13T03:54:53.420Z,-84
2022-09-13T03:57:24.274Z,-84
2022-09-13T03:59:57.003Z,-84
2022-09-13T04:02:27.926Z,-84
2022-09-13T04:04:56.488Z,-85
2022-09-13T04:07:27.298Z,-84
2022-09-13T04:09:57.250Z,-83
2022-09-13T04:12:26.122Z,-84
2022-09-13T04:14:54.633Z,-84
2022-09-13T04:17:23.167Z,-84
2022-09-13T04:19:51.602Z,-83
2022-09-13T04:22:20.377Z,-83
2022-09-13T04:24:48.859Z,-83
2022-09-13T04:27:18.724Z,-83
2022-09-13T04:29:47.171Z,-83
2022-09-13T04:32:15.698Z,-83
2022-09-13T04:34:44.729Z,-84
2022-09-13T04:37:13.396Z,-84
2022-09-13T04:39:41.937Z,-83
2022-09-13T04:42:11.412Z,-84
2022-09-13T04:44:41.495Z,-84
2022-09-13T04:47:11.040Z,-84
2022-09-13T04:49:40.143Z,-84
2022-09-13T04:52:08.703Z,-83
2022-09-13T04:54:37.964Z,-84
2022-09-13T04:57:06.742Z,-85
2022-09-13T04:59:35.222Z,-85
2022-09-13T05:02:05.434Z,-85
2022-09-13T05:04:33.963Z,-85
2022-09-13T05:07:02.459Z,-85
2022-09-13T05:09:30.878Z,-85
2022-09-13T05:12:00.189Z,-85
2022-09-13T05:14:28.610Z,-85
2022-09-13T05:16:57.058Z,-85
2022-09-13T05:19:27.000Z,-85
2022-09-13T05:21:55.470Z,-85
2022-09-13T05:24:24.042Z,-85
2022-09-13T05:26:52.634Z,-84
2022-09-13T05:29:26.348Z,-87
2022-09-13T05:31:54.998Z,-84
2022-09-13T05:34:23.589Z,-83
2022-09-13T05:36:54.447Z,-83
2022-09-13T05:39:34.143Z,-84
2022-09-13T05:42:11.977Z,-84
2022-09-13T05:44:40.497Z,-83
2022-09-13T05:47:09.106Z,-84
2022-09-13T05:49:51.097Z,-84
2022-09-13T05:52:27.728Z,-84
2022-09-13T05:54:56.170Z,-84
2022-09-13T05:57:24.700Z,-83
2022-09-13T05:59:53.151Z,-83
2022-09-13T06:02:21.724Z,-84
2022-09-13T06:04:50.890Z,-83
2022-09-13T06:07:19.441Z,-82
2022-09-13T06:09:49.703Z,-81
2022-09-13T06:12:18.110Z,-83
2022-09-13T06:14:46.576Z,-81
2022-09-13T06:17:15.128Z,-80
2022-09-13T06:19:44.518Z,-85
2022-09-13T06:22:12.954Z,-80
2022-09-13T06:24:41.419Z,-80
2022-09-13T06:27:11.485Z,-80
2022-09-13T06:29:39.916Z,-80
2022-09-13T06:32:08.460Z,-81
2022-09-13T06:34:36.883Z,-80
2022-09-13T06:37:05.334Z,-80
2022-09-13T06:39:34.362Z,-80
2022-09-13T06:42:03.076Z,-79
2022-09-13T06:44:32.866Z,-79
2022-09-13T06:47:01.301Z,-80
2022-09-13T06:49:31.569Z,-79
2022-09-13T06:52:00.037Z,-79
2022-09-13T06:54:28.466Z,-79
2022-09-13T06:56:57.016Z,-79
2022-09-13T06:59:25.667Z,-78
2022-09-13T07:01:55.611Z,-78
2022-09-13T07:04:24.147Z,-79
2022-09-13T07:06:52.566Z,-78
2022-09-13T07:09:23.232Z,-79
2022-09-13T07:11:54.546Z,-79
2022-09-13T07:14:26.193Z,-78
2022-09-13T07:16:56.664Z,-79
2022-09-13T07:19:31.481Z,-78
2022-09-13T07:22:00.514Z,-78
2022-09-13T07:24:29.073Z,-79
2022-09-13T07:26:57.509Z,-79
2022-09-13T07:29:26.189Z,-79
2022-09-13T07:31:58.669Z,-79
2022-09-13T07:34:28.482Z,-79
2022-09-13T07:36:56.911Z,-79
2022-09-13T07:39:25.347Z,-80
2022-09-13T07:41:54.730Z,-79
2022-09-13T07:44:23.234Z,-78
2022-09-13T07:46:51.811Z,-78
2022-09-13T07:49:21.857Z,-79
2022-09-13T07:51:51.636Z,-80
2022-09-13T07:54:21.701Z,-79
2022-09-13T07:56:51.956Z,-80
2022-09-13T07:59:21.175Z,-79
2022-09-13T08:01:52.136Z,-79
2022-09-13T08:04:26.942Z,-79
2022-09-13T08:06:55.988Z,-79
2022-09-13T08:09:24.579Z,-78
2022-09-13T08:11:54.125Z,-79
2022-09-13T08:14:24.669Z,-79
2022-09-13T08:16:56.804Z,-79
2022-09-13T08:19:26.934Z,-79
2022-09-13T08:21:55.378Z,-79
2022-09-13T08:24:24.101Z,-79
2022-09-13T08:26:55.578Z,-79
2022-09-13T08:29:25.322Z,-79
2022-09-13T08:31:53.870Z,-79
2022-09-13T08:34:22.414Z,-79
2022-09-13T08:36:52.240Z,-79
2022-09-13T08:39:20.666Z,-80
2022-09-13T08:42:22.670Z,-80
2022-09-13T08:44:55.923Z,-79
2022-09-13T08:47:39.268Z,-80
2022-09-13T08:50:18.840Z,-79
2022-09-13T08:53:04.337Z,-82
2022-09-13T08:55:48.906Z,-82
2022-09-13T08:58:57.186Z,-81
2022-09-13T09:01:43.307Z,-81
2022-09-13T09:04:32.508Z,-80
2022-09-13T09:07:07.575Z,-81
2022-09-13T09:09:46.681Z,-81
2022-09-13T09:12:29.851Z,-81
2022-09-13T09:15:07.400Z,-81
2022-09-13T09:17:51.309Z,-81
2022-09-13T09:20:33.749Z,-80
2022-09-13T09:23:12.261Z,-80
2022-09-13T09:25:42.130Z,-80
2022-09-13T09:28:15.014Z,-81
2022-09-13T09:30:59.839Z,-81
2022-09-13T09:33:47.457Z,-80
2022-09-13T09:36:25.506Z,-81
2022-09-13T09:38:55.677Z,-81
2022-09-13T09:41:30.138Z,-81
2022-09-13T09:44:07.096Z,-81
2022-09-13T09:46:41.635Z,-80
2022-09-13T09:49:36.362Z,-80
2022-09-13T09:52:09.192Z,-80
2022-09-13T09:54:39.197Z,-80
2022-09-13T09:57:09.580Z,-80
2022-09-13T09:59:38.001Z,-80
2022-09-13T10:02:20.611Z,-81
2022-09-13T10:05:02.335Z,-81
2022-09-13T10:07:36.411Z,-79
2022-09-13T10:10:21.567Z,-82
2022-09-13T10:12:56.041Z,-78
2022-09-13T10:15:29.666Z,-81
2022-09-13T10:18:42.210Z,-80
2022-09-13T10:21:21.422Z,-81
2022-09-13T10:23:52.074Z,-80
2022-09-13T10:26:24.409Z,-81
2022-09-13T10:29:02.199Z,-79
2022-09-13T10:31:36.553Z,-79
2022-09-13T10:34:08.798Z,-79
2022-09-13T10:36:52.074Z,-79
2022-09-13T10:39:25.017Z,-80
2022-09-13T10:41:58.600Z,-79
2022-09-13T10:44:41.465Z,-78
2022-09-13T10:47:20.536Z,-78
2022-09-13T10:49:55.678Z,-78
2022-09-13T10:52:35.204Z,-78
2022-09-13T10:55:39.135Z,-78
2022-09-13T10:58:21.097Z,-79
2022-09-13T11:01:26.619Z,-79
2022-09-13T11:04:37.391Z,-79
2022-09-13T11:07:36.878Z,-78
2022-09-13T11:10:18.266Z,-80
2022-09-13T11:12:59.260Z,-78
2022-09-13T11:15:51.963Z,-79
2022-09-13T11:19:02.216Z,-79
2022-09-13T11:21:50.384Z,-79
2022-09-13T11:24:52.485Z,-79
2022-09-13T11:27:36.992Z,-79
2022-09-13T11:30:15.733Z,-79
2022-09-13T11:33:16.382Z,-79
2022-09-13T11:35:59.557Z,-79
2022-09-13T11:38:57.090Z,-79
2022-09-13T11:41:44.689Z,-81
2022-09-13T11:44:58.134Z,-78
2022-09-13T11:48:02.727Z,-80
2022-09-13T11:50:48.199Z,-80
2022-09-13T11:53:59.321Z,-80
2022-09-13T11:56:34.643Z,-80
2022-09-13T11:59:19.949Z,-80
2022-09-13T12:01:55.983Z,-80
2022-09-13T12:04:33.905Z,-81
2022-09-13T12:07:09.529Z,-80
2022-09-13T12:09:48.644Z,-79
2022-09-13T12:12:17.523Z,-80
2022-09-13T12:14:54.025Z,-80
2022-09-13T12:17:30.774Z,-81
2022-09-13T12:20:03.065Z,-81
2022-09-13T12:22:36.188Z,-80
2022-09-13T12:25:19.735Z,-80
2022-09-13T12:27:58.552Z,-81
2022-09-13T12:30:38.402Z,-81
2022-09-13T12:33:08.100Z,-81
2022-09-13T12:35:49.586Z,-81
2022-09-13T12:38:49.160Z,-80
2022-09-13T12:41:37.235Z,-80
2022-09-13T12:44:33.405Z,-81
2022-09-13T12:47:53.046Z,-79
2022-09-13T12:50:50.067Z,-79
2022-09-13T12:53:45.202Z,-79
2022-09-13T12:56:48.692Z,-82
2022-09-13T12:59:54.974Z,-79
2022-09-13T13:02:34.853Z,-79
2022-09-13T13:05:16.862Z,-79
2022-09-13T13:07:55.842Z,-79
2022-09-13T13:10:33.201Z,-79
2022-09-13T13:13:23.573Z,-79
2022-09-13T13:16:07.358Z,-79
2022-09-13T13:18:48.614Z,-79
2022-09-13T13:21:34.398Z,-79
2022-09-13T13:24:46.393Z,-79
2022-09-13T13:27:48.665Z,-80
2022-09-13T13:30:53.694Z,-79
2022-09-13T13:33:28.030Z,-79
2022-09-13T13:35:56.954Z,-79
2022-09-13T13:38:50.118Z,-80
2022-09-13T13:41:45.865Z,-79
2022-09-13T13:45:09.673Z,-81
2022-09-13T13:48:13.200Z,-80
2022-09-13T13:51:23.183Z,-78
2022-09-13T13:53:57.931Z,-78
2022-09-13T13:56:48.203Z,-79
2022-09-13T13:59:26.190Z,-82
2022-09-13T14:01:59.578Z,-81
2022-09-13T14:05:10.464Z,-80
2022-09-13T14:08:27.253Z,-81
2022-09-13T14:11:10.581Z,-81
2022-09-13T14:13:55.314Z,-81
2022-09-13T14:16:44.039Z,-81
2022-09-13T14:19:24.336Z,-81
2022-09-13T14:22:19.398Z,-81
2022-09-13T14:24:49.834Z,-81
2022-09-13T14:27:23.211Z,-81
2022-09-13T14:29:55.544Z,-80
2022-09-13T14:32:32.161Z,-81
2022-09-13T14:35:09.096Z,-82
2022-09-13T14:37:42.652Z,-82
2022-09-13T14:40:22.415Z,-82
2022-09-13T14:42:52.573Z,-82
2022-09-13T14:45:26.870Z,-82
2022-09-13T14:48:02.124Z,-81
2022-09-13T14:50:36.250Z,-82
2022-09-13T14:53:09.623Z,-82
2022-09-13T14:55:43.754Z,-82
2022-09-13T14:58:22.915Z,-82
2022-09-13T15:00:58.311Z,-82
2022-09-13T15:03:28.124Z,-82
2022-09-13T15:05:59.506Z,-81
2022-09-13T15:08:46.968Z,-81
2022-09-13T15:11:28.602Z,-82
2022-09-13T15:14:22.363Z,-81
2022-09-13T15:16:53.981Z,-82
2022-09-13T15:19:38.873Z,-82
2022-09-13T15:22:16.935Z,-82
2022-09-13T15:24:50.751Z,-82
2022-09-13T15:27:25.706Z,-82
2022-09-13T15:29:57.585Z,-81
2022-09-13T15:32:35.405Z,-81
2022-09-13T15:35:04.236Z,-82
2022-09-13T15:37:37.138Z,-81
2022-09-13T15:40:25.065Z,-82
2022-09-13T15:42:54.266Z,-81
2022-09-13T15:45:23.937Z,-82
2022-09-13T15:47:54.021Z,-81
2022-09-13T15:50:27.031Z,-82
2022-09-13T15:52:56.661Z,-81
2022-09-13T15:55:28.702Z,-82
2022-09-13T15:57:57.152Z,-81
2022-09-13T16:00:28.669Z,-82
2022-09-13T16:02:57.311Z,-81
2022-09-13T16:05:26.092Z,-81
2022-09-13T16:07:58.839Z,-82
2022-09-13T16:10:30.213Z,-82
2022-09-13T16:12:58.874Z,-82
2022-09-13T16:15:28.309Z,-81
2022-09-13T16:17:56.775Z,-82
2022-09-13T16:20:27.774Z,-82
2022-09-13T16:22:56.517Z,-82
2022-09-13T16:25:25.033Z,-83
2022-09-13T16:27:55.332Z,-82
2022-09-13T16:30:24.423Z,-82
2022-09-13T16:32:52.888Z,-82
2022-09-13T16:35:21.301Z,-81
2022-09-13T16:37:51.877Z,-83
2022-09-13T16:40:20.933Z,-80
2022-09-13T16:42:49.428Z,-80
2022-09-13T16:45:19.689Z,-81
2022-09-13T16:47:48.204Z,-81
2022-09-13T16:50:17.073Z,-80
2022-09-13T16:52:45.649Z,-81
2022-09-13T16:55:14.461Z,-80
2022-09-13T16:57:44.685Z,-80
2022-09-13T17:00:15.473Z,-80
2022-09-13T17:02:45.684Z,-80
2022-09-13T17:05:14.407Z,-80
2022-09-13T17:07:42.900Z,-80
2022-09-13T17:10:12.932Z,-80
2022-09-13T17:12:41.972Z,-80
2022-09-13T17:15:11.765Z,-81
2022-09-13T17:17:40.264Z,-80
2022-09-13T17:20:14.268Z,-80
2022-09-13T17:22:42.962Z,-80
2022-09-13T17:25:12.022Z,-80
2022-09-13T17:27:40.595Z,-78
2022-09-13T17:30:12.498Z,-80
2022-09-13T17:32:40.934Z,-80
2022-09-13T17:35:12.150Z,-80
2022-09-13T17:37:40.626Z,-79
2022-09-13T17:40:10.122Z,-79
2022-09-13T17:42:38.596Z,-81
2022-09-13T17:45:07.949Z,-80
2022-09-13T17:47:36.495Z,-81
2022-09-13T17:50:05.388Z,-81
2022-09-13T17:52:35.384Z,-81
2022-09-13T17:55:04.838Z,-82
2022-09-13T17:57:33.320Z,-82
2022-09-13T18:00:05.651Z,-83
2022-09-13T18:02:36.091Z,-83
2022-09-13T18:05:10.598Z,-82
2022-09-13T18:07:46.227Z,-83
2022-09-13T18:10:38.733Z,-82
2022-09-13T18:13:05.249Z,-83
2022-09-13T18:15:39.509Z,-84
2022-09-13T18:18:07.946Z,-82
2022-09-13T18:20:40.475Z,-82
2022-09-13T18:23:10.631Z,-82
2022-09-13T18:25:39.109Z,-83
2022-09-13T18:28:07.536Z,-82
2022-09-13T18:30:35.982Z,-82
2022-09-13T18:33:06.109Z,-82
2022-09-13T18:35:37.127Z,-82
2022-09-13T18:38:05.609Z,-87
2022-09-13T18:40:35.514Z,-86
2022-09-13T18:43:03.953Z,-86
2022-09-13T18:45:32.432Z,-86
2022-09-13T18:48:00.871Z,-86
2022-09-13T18:50:29.345Z,-86
2022-09-13T18:52:57.759Z,-86
2022-09-13T18:55:26.242Z,-84
2022-09-13T18:57:56.130Z,-86
2022-09-13T19:00:25.288Z,-86
2022-09-13T19:03:11.165Z,-87
2022-09-13T19:05:41.212Z,-88
2022-09-13T19:08:11.241Z,-87
2022-09-13T19:10:40.133Z,-87
2022-09-13T19:13:10.190Z,-87
2022-09-13T19:15:39.257Z,-87
2022-09-13T19:18:07.856Z,-88
2022-09-13T19:20:36.428Z,-87
2022-09-13T19:23:04.927Z,-88
2022-09-13T19:25:36.219Z,-87
2022-09-13T19:28:04.952Z,-88
2022-09-13T19:30:37.394Z,-88
2022-09-13T19:33:06.042Z,-88
2022-09-13T19:35:37.162Z,-87
2022-09-13T19:38:05.704Z,-88
2022-09-13T19:40:34.227Z,-88
2022-09-13T19:43:03.179Z,-87
2022-09-13T19:45:31.733Z,-87
2022-09-13T19:48:37.258Z,-88
2022-09-13T19:50:54.364Z,-87
2022-09-13T19:53:35.484Z,-88
2022-09-13T19:56:14.376Z,-87
2022-09-13T19:58:44.244Z,-86
2022-09-13T20:01:16.230Z,-89
2022-09-13T20:03:52.947Z,-87
2022-09-13T20:06:23.345Z,-88
2022-09-13T20:08:59.674Z,-88
2022-09-13T20:11:29.250Z,-88
2022-09-13T20:13:59.538Z,-88
2022-09-13T20:16:32.249Z,-86
2022-09-13T20:19:13.784Z,-87
2022-09-13T20:21:53.042Z,-87
2022-09-13T20:24:21.474Z,-87
2022-09-13T20:26:52.282Z,-87
2022-09-13T20:29:21.223Z,-86
2022-09-13T20:31:49.710Z,-87
2022-09-13T20:34:19.827Z,-86
2022-09-13T20:36:48.414Z,-86
2022-09-13T20:39:17.140Z,-86
2022-09-13T20:41:46.624Z,-87
2022-09-13T20:44:15.167Z,-87
2022-09-13T20:46:43.964Z,-89
2022-09-13T20:49:12.529Z,-87
2022-09-13T20:51:42.558Z,-88
2022-09-13T20:54:13.727Z,-88
2022-09-13T20:56:42.491Z,-88
2022-09-13T20:59:11.409Z,-88
2022-09-13T21:01:40.738Z,-89
2022-09-13T21:04:09.704Z,-87
2022-09-13T21:07:02.684Z,-86
2022-09-13T21:09:31.805Z,-87
2022-09-13T21:12:01.311Z,-87
2022-09-13T21:14:34.090Z,-86
2022-09-13T21:17:06.710Z,-87
2022-09-13T21:19:35.378Z,-87
2022-09-13T21:22:05.528Z,-87
2022-09-13T21:24:34.097Z,-87
2022-09-13T21:27:02.756Z,-87
2022-09-13T21:29:31.521Z,-87
2022-09-13T21:32:00.158Z,-88
2022-09-13T21:34:29.757Z,-88
2022-09-13T21:36:58.253Z,-88
2022-09-13T21:39:29.971Z,-88
2022-09-13T21:41:58.742Z,-89
2022-09-13T21:44:28.289Z,-88
2022-09-13T21:46:56.913Z,-88
2022-09-13T21:49:27.922Z,-88
2022-09-13T21:51:56.783Z,-87
2022-09-13T21:54:25.439Z,-88
2022-09-13T21:56:56.119Z,-87
2022-09-13T21:59:25.038Z,-86
2022-09-13T22:01:55.001Z,-87
2022-09-13T22:04:27.605Z,-86
2022-09-13T22:06:59.411Z,-86
2022-09-13T22:09:29.611Z,-87
2022-09-13T22:12:00.862Z,-86
2022-09-13T22:14:29.642Z,-86
2022-09-13T22:16:58.286Z,-85
2022-09-13T22:19:30.895Z,-87
2022-09-13T22:22:01.354Z,-87
2022-09-13T22:24:35.810Z,-87
2022-09-13T22:27:07.281Z,-88
2022-09-13T22:29:36.292Z,-89
2022-09-13T22:32:06.900Z,-89
2022-09-13T22:34:35.673Z,-89
2022-09-13T22:37:04.396Z,-88
2022-09-13T22:39:32.951Z,-88
2022-09-13T22:42:01.555Z,-88
2022-09-13T22:44:31.481Z,-87
2022-09-13T22:47:00.613Z,-88
2022-09-13T22:49:29.160Z,-88
2022-09-13T22:51:57.705Z,-88
2022-09-13T22:54:26.263Z,-88
2022-09-13T22:56:54.795Z,-88
2022-09-13T22:59:23.598Z,-88
2022-09-13T23:01:53.513Z,-86
2022-09-13T23:04:22.304Z,-87
2022-09-13T23:06:50.821Z,-87
2022-09-13T23:09:20.109Z,-87
2022-09-13T23:11:48.920Z,-86
2022-09-13T23:14:20.205Z,-88
2022-09-13T23:16:51.831Z,-87
2022-09-13T23:19:25.741Z,-87
2022-09-13T23:21:55.573Z,-87
2022-09-13T23:24:24.857Z,-85
2022-09-13T23:26:57.109Z,-86
2022-09-13T23:29:25.614Z,-87
2022-09-13T23:31:57.169Z,-87
2022-09-13T23:34:27.320Z,-87
2022-09-13T23:36:56.043Z,-87
2022-09-13T23:39:24.491Z,-88
2022-09-13T23:41:53.204Z,-89
2022-09-13T23:44:22.046Z,-88
2022-09-13T23:46:51.140Z,-88
2022-09-13T23:49:19.814Z,-88
2022-09-13T23:51:50.110Z,-88
2022-09-13T23:54:18.895Z,-87
2022-09-13T23:56:50.195Z,-88
2022-09-13T23:59:19.032Z,-88
